sensor_id;sensor_type;location;lat;lon;timestamp;pressure;altitude;pressure_sealevel;temperature;humidity
9281;BME280;4679;47.966;7.958;2023-05-20T06:46:28;97003.47;;;13.05;77.77
9281;BME280;4679;47.966;7.958;2023-05-20T06:48:29;97001.91;;;13.14;77.84
9281;BME280;4679;47.966;7.958;2023-05-20T06:50:31;96994.25;;;13.23;77.50
9281;BME280;4679;47.966;7.958;2023-05-20T06:52:33;96989.72;;;13.28;77.52
9281;BME280;4679;47.966;7.958;2023-05-20T06:54:34;96992.66;;;13.32;77.48
9281;BME280;4679;47.966;7.958;2023-05-20T06:56:39;96994.28;;;13.38;77.32
9281;BME280;4679;47.966;7.958;2023-05-20T06:58:40;96992.16;;;13.40;77.35
9281;BME280;4679;47.966;7.958;2023-05-20T07:00:42;96996.41;;;13.46;77.27
9281;BME280;4679;47.966;7.958;2023-05-20T07:02:45;96995.34;;;13.52;77.34
9281;BME280;4679;47.966;7.958;2023-05-20T07:04:47;97006.84;;;13.58;77.06
9281;BME280;4679;47.966;7.958;2023-05-20T07:06:48;96996.16;;;13.63;77.13
9281;BME280;4679;47.966;7.958;2023-05-20T07:08:50;96992.16;;;13.65;76.71
9281;BME280;4679;47.966;7.958;2023-05-20T07:10:54;96989.78;;;13.69;77.01
9281;BME280;4679;47.966;7.958;2023-05-20T07:12:56;96990.84;;;13.73;76.63
9281;BME280;4679;47.966;7.958;2023-05-20T07:14:57;96994.28;;;13.79;76.83
9281;BME280;4679;47.966;7.958;2023-05-20T07:16:59;96994.56;;;13.82;76.56
9281;BME280;4679;47.966;7.958;2023-05-20T07:19:02;96985.78;;;13.87;76.65
9281;BME280;4679;47.966;7.958;2023-05-20T07:21:04;96985.50;;;13.93;76.70
9281;BME280;4679;47.966;7.958;2023-05-20T07:23:06;96980.69;;;13.95;76.29
9281;BME280;4679;47.966;7.958;2023-05-20T07:25:08;96973.75;;;13.99;76.29
9281;BME280;4679;47.966;7.958;2023-05-20T07:27:10;96966.81;;;14.03;76.38
9281;BME280;4679;47.966;7.958;2023-05-20T07:29:12;96970.53;;;14.07;76.38
9281;BME280;4679;47.966;7.958;2023-05-20T07:31:14;96965.47;;;14.06;76.68
9281;BME280;4679;47.966;7.958;2023-05-20T07:33:16;96958.25;;;14.06;77.34
9281;BME280;4679;47.966;7.958;2023-05-20T07:35:19;96966.00;;;14.08;76.62
9281;BME280;4679;47.966;7.958;2023-05-20T07:37:21;96955.59;;;14.12;76.55
9281;BME280;4679;47.966;7.958;2023-05-20T07:39:22;96959.06;;;14.12;76.59
9281;BME280;4679;47.966;7.958;2023-05-20T07:41:24;96957.19;;;14.18;76.62
9281;BME280;4679;47.966;7.958;2023-05-20T07:43:26;96963.28;;;14.23;76.80
9281;BME280;4679;47.966;7.958;2023-05-20T07:45:28;96955.03;;;14.25;76.71
9281;BME280;4679;47.966;7.958;2023-05-20T07:47:30;96956.91;;;14.24;76.31
9281;BME280;4679;47.966;7.958;2023-05-20T07:49:32;96964.38;;;14.22;76.56
9281;BME280;4679;47.966;7.958;2023-05-20T07:51:35;96964.91;;;14.24;76.65
9281;BME280;4679;47.966;7.958;2023-05-20T07:53:37;96968.63;;;14.28;76.79
9281;BME280;4679;47.966;7.958;2023-05-20T07:55:38;96961.44;;;14.29;77.29
9281;BME280;4679;47.966;7.958;2023-05-20T07:57:40;96960.38;;;14.30;76.61
9281;BME280;4679;47.966;7.958;2023-05-20T07:59:42;96957.16;;;14.33;76.58
9281;BME280;4679;47.966;7.958;2023-05-20T08:01:44;96951.50;;;14.39;76.29
9281;BME280;4679;47.966;7.958;2023-05-20T08:03:45;96954.75;;;14.47;76.59
9281;BME280;4679;47.966;7.958;2023-05-20T08:05:47;96957.09;;;14.53;76.00
9281;BME280;4679;47.966;7.958;2023-05-20T08:07:50;96953.34;;;14.59;76.22
9281;BME280;4679;47.966;7.958;2023-05-20T08:09:52;96951.47;;;14.65;76.06
9281;BME280;4679;47.966;7.958;2023-05-20T08:11:53;96955.97;;;14.69;76.24
9281;BME280;4679;47.966;7.958;2023-05-20T08:13:55;96960.25;;;14.75;75.53
9281;BME280;4679;47.966;7.958;2023-05-20T08:15:57;96953.56;;;14.78;75.83
9281;BME280;4679;47.966;7.958;2023-05-20T08:17:58;96947.13;;;14.79;76.08
9281;BME280;4679;47.966;7.958;2023-05-20T08:20:00;96949.00;;;14.78;76.33
9281;BME280;4679;47.966;7.958;2023-05-20T08:22:02;96950.03;;;14.83;75.93
9281;BME280;4679;47.966;7.958;2023-05-20T08:24:06;96942.28;;;14.86;75.76
9281;BME280;4679;47.966;7.958;2023-05-20T08:26:08;96951.63;;;14.89;75.62
9281;BME280;4679;47.966;7.958;2023-05-20T08:28:10;96940.66;;;14.90;75.37
9281;BME280;4679;47.966;7.958;2023-05-20T08:30:12;96950.00;;;14.93;75.83
9281;BME280;4679;47.966;7.958;2023-05-20T08:32:13;96950.25;;;14.96;75.29
9281;BME280;4679;47.966;7.958;2023-05-20T08:34:15;96952.63;;;14.98;75.43
9281;BME280;4679;47.966;7.958;2023-05-20T08:36:17;96951.06;;;14.97;75.13
9281;BME280;4679;47.966;7.958;2023-05-20T08:38:19;96955.03;;;14.99;75.58
9281;BME280;4679;47.966;7.958;2023-05-20T08:40:22;96954.75;;;15.01;75.47
9281;BME280;4679;47.966;7.958;2023-05-20T08:42:23;96959.84;;;15.02;75.15
9281;BME280;4679;47.966;7.958;2023-05-20T08:44:26;96959.81;;;15.07;74.74
9281;BME280;4679;47.966;7.958;2023-05-20T08:46:29;96959.75;;;15.12;74.69
9281;BME280;4679;47.966;7.958;2023-05-20T08:48:32;96959.22;;;15.16;75.06
9281;BME280;4679;47.966;7.958;2023-05-20T08:50:34;96955.72;;;15.20;74.49
9281;BME280;4679;47.966;7.958;2023-05-20T08:52:36;96956.25;;;15.22;74.63
9281;BME280;4679;47.966;7.958;2023-05-20T08:54:43;96963.19;;;15.23;74.47
9281;BME280;4679;47.966;7.958;2023-05-20T08:56:46;96963.72;;;15.25;74.51
9281;BME280;4679;47.966;7.958;2023-05-20T08:58:48;96965.31;;;15.26;74.21
9281;BME280;4679;47.966;7.958;2023-05-20T09:00:51;96963.94;;;15.29;74.08
9281;BME280;4679;47.966;7.958;2023-05-20T09:02:54;96962.59;;;15.31;73.79
9281;BME280;4679;47.966;7.958;2023-05-20T09:04:55;96960.47;;;15.28;74.31
9281;BME280;4679;47.966;7.958;2023-05-20T09:06:57;96966.94;;;15.27;73.70
9281;BME280;4679;47.966;7.958;2023-05-20T09:08:59;96965.31;;;15.26;73.67
9281;BME280;4679;47.966;7.958;2023-05-20T09:11:00;96958.59;;;15.29;73.83
9281;BME280;4679;47.966;7.958;2023-05-20T09:13:04;96957.50;;;15.35;73.54
9281;BME280;4679;47.966;7.958;2023-05-20T09:15:07;96959.88;;;15.41;73.73
9281;BME280;4679;47.966;7.958;2023-05-20T09:17:09;96955.00;;;15.48;73.36
9281;BME280;4679;47.966;7.958;2023-05-20T09:19:11;96953.66;;;15.56;72.81
9281;BME280;4679;47.966;7.958;2023-05-20T09:21:13;96951.16;;;15.65;72.50
9281;BME280;4679;47.966;7.958;2023-05-20T09:23:14;96954.06;;;15.73;72.69
9281;BME280;4679;47.966;7.958;2023-05-20T09:25:19;96951.03;;;15.80;72.10
9281;BME280;4679;47.966;7.958;2023-05-20T09:27:22;96949.34;;;15.89;72.27
9281;BME280;4679;47.966;7.958;2023-05-20T09:29:25;96954.66;;;15.94;71.64
9281;BME280;4679;47.966;7.958;2023-05-20T09:31:27;96951.38;;;16.02;70.98
9281;BME280;4679;47.966;7.958;2023-05-20T09:33:33;96956.66;;;16.07;71.04
9281;BME280;4679;47.966;7.958;2023-05-20T09:35:35;96955.84;;;16.12;70.41
9281;BME280;4679;47.966;7.958;2023-05-20T09:37:41;96954.47;;;16.14;70.55
9281;BME280;4679;47.966;7.958;2023-05-20T09:39:47;96954.41;;;16.19;70.30
9281;BME280;4679;47.966;7.958;2023-05-20T09:41:55;96942.63;;;16.21;69.21
9281;BME280;4679;47.966;7.958;2023-05-20T09:43:58;96938.25;;;16.30;69.44
9281;BME280;4679;47.966;7.958;2023-05-20T09:46:03;96939.72;;;16.41;69.15
9281;BME280;4679;47.966;7.958;2023-05-20T09:48:06;96937.25;;;16.49;68.16
9281;BME280;4679;47.966;7.958;2023-05-20T09:50:10;96938.47;;;16.57;68.61
9281;BME280;4679;47.966;7.958;2023-05-20T09:52:14;96940.84;;;16.64;67.87
9281;BME280;4679;47.966;7.958;2023-05-20T09:54:17;96949.38;;;16.66;67.73
9281;BME280;4679;47.966;7.958;2023-05-20T09:56:19;96946.63;;;16.71;67.45
9281;BME280;4679;47.966;7.958;2023-05-20T09:58:22;96945.00;;;16.75;67.51
9281;BME280;4679;47.966;7.958;2023-05-20T10:00:24;96939.88;;;16.78;67.68
9281;BME280;4679;47.966;7.958;2023-05-20T10:02:27;96942.97;;;16.85;67.23
9281;BME280;4679;47.966;7.958;2023-05-20T10:04:29;96945.13;;;16.83;67.49
9281;BME280;4679;47.966;7.958;2023-05-20T10:06:45;96942.75;;;16.82;67.42
9281;BME280;4679;47.966;7.958;2023-05-20T10:09:00;96939.50;;;16.85;67.32
9281;BME280;4679;47.966;7.958;2023-05-20T10:11:12;96934.41;;;16.83;66.76
9281;BME280;4679;47.966;7.958;2023-05-20T10:13:33;96940.81;;;16.87;66.73
9281;BME280;4679;47.966;7.958;2023-05-20T10:15:43;96925.97;;;16.95;66.87
9281;BME280;4679;47.966;7.958;2023-05-20T10:17:54;96937.56;;;17.09;66.03
9281;BME280;4679;47.966;7.958;2023-05-20T10:20:00;96936.28;;;17.07;66.63
9281;BME280;4679;47.966;7.958;2023-05-20T10:22:05;96930.91;;;17.07;66.21
9281;BME280;4679;47.966;7.958;2023-05-20T10:24:08;96926.56;;;17.11;66.29
9281;BME280;4679;47.966;7.958;2023-05-20T10:26:10;96927.78;;;17.18;65.74
9281;BME280;4679;47.966;7.958;2023-05-20T10:28:12;96925.47;;;17.31;65.38
9281;BME280;4679;47.966;7.958;2023-05-20T10:30:17;96930.19;;;17.39;65.45
9281;BME280;4679;47.966;7.958;2023-05-20T10:32:26;96926.75;;;17.71;65.00
9281;BME280;4679;47.966;7.958;2023-05-20T10:34:44;96915.59;;;18.23;63.73
9281;BME280;4679;47.966;7.958;2023-05-20T10:36:46;96908.97;;;18.48;63.38
9281;BME280;4679;47.966;7.958;2023-05-20T10:38:58;96921.59;;;18.75;62.62
9281;BME280;4679;47.966;7.958;2023-05-20T10:41:07;96917.03;;;18.62;62.68
9281;BME280;4679;47.966;7.958;2023-05-20T10:43:12;96919.91;;;18.66;62.89
9281;BME280;4679;47.966;7.958;2023-05-20T10:45:24;96922.88;;;18.64;62.83
9281;BME280;4679;47.966;7.958;2023-05-20T10:47:26;96917.91;;;18.57;62.92
9281;BME280;4679;47.966;7.958;2023-05-20T10:49:34;96919.31;;;18.69;62.42
9281;BME280;4679;47.966;7.958;2023-05-20T10:51:36;96918.31;;;18.78;62.45
9281;BME280;4679;47.966;7.958;2023-05-20T10:53:39;96912.63;;;18.66;62.85
9281;BME280;4679;47.966;7.958;2023-05-20T10:55:47;96912.63;;;18.66;62.60
9281;BME280;4679;47.966;7.958;2023-05-20T10:57:50;96908.75;;;18.72;62.54
9281;BME280;4679;47.966;7.958;2023-05-20T10:59:53;96903.44;;;18.94;62.21
9281;BME280;4679;47.966;7.958;2023-05-20T11:01:55;96908.91;;;19.03;61.69
9281;BME280;4679;47.966;7.958;2023-05-20T11:03:56;96902.72;;;19.03;61.62
9281;BME280;4679;47.966;7.958;2023-05-20T11:06:01;96904.34;;;18.90;61.84
9281;BME280;4679;47.966;7.958;2023-05-20T11:08:05;96906.03;;;19.00;61.60
9281;BME280;4679;47.966;7.958;2023-05-20T11:10:08;96896.50;;;19.16;61.21
9281;BME280;4679;47.966;7.958;2023-05-20T11:12:10;96894.81;;;19.20;60.95
9281;BME280;4679;47.966;7.958;2023-05-20T11:14:12;96903.53;;;19.25;60.41
9281;BME280;4679;47.966;7.958;2023-05-20T11:16:14;96903.66;;;19.56;60.41
9281;BME280;4679;47.966;7.958;2023-05-20T11:18:15;96909.53;;;19.81;59.92
9281;BME280;4679;47.966;7.958;2023-05-20T11:20:17;96894.81;;;19.87;59.77
9281;BME280;4679;47.966;7.958;2023-05-20T11:22:21;96903.84;;;19.60;60.17
9281;BME280;4679;47.966;7.958;2023-05-20T11:24:24;96885.16;;;19.19;60.77
9281;BME280;4679;47.966;7.958;2023-05-20T11:26:28;96879.53;;;19.29;60.53
9281;BME280;4679;47.966;7.958;2023-05-20T11:28:31;96880.91;;;19.62;59.75
9281;BME280;4679;47.966;7.958;2023-05-20T11:30:33;96872.06;;;20.01;59.19
9281;BME280;4679;47.966;7.958;2023-05-20T11:32:36;96872.78;;;20.16;58.42
9281;BME280;4679;47.966;7.958;2023-05-20T11:34:38;96871.44;;;19.96;58.94
9281;BME280;4679;47.966;7.958;2023-05-20T11:36:40;96866.63;;;19.84;59.40
9281;BME280;4679;47.966;7.958;2023-05-20T11:38:44;96866.84;;;19.65;59.41
9281;BME280;4679;47.966;7.958;2023-05-20T11:40:50;96857.59;;;19.58;59.08
9281;BME280;4679;47.966;7.958;2023-05-20T11:42:53;96863.31;;;19.43;59.62
9281;BME280;4679;47.966;7.958;2023-05-20T11:44:58;96859.78;;;19.33;59.75
9281;BME280;4679;47.966;7.958;2023-05-20T11:47:01;96854.28;;;19.39;59.47
9281;BME280;4679;47.966;7.958;2023-05-20T11:49:05;96851.41;;;19.57;59.05
9281;BME280;4679;47.966;7.958;2023-05-20T11:51:07;96854.66;;;19.99;58.21
9281;BME280;4679;47.966;7.958;2023-05-20T11:53:10;96861.25;;;20.24;57.39
9281;BME280;4679;47.966;7.958;2023-05-20T11:55:16;96853.66;;;20.34;57.61
9281;BME280;4679;47.966;7.958;2023-05-20T11:57:18;96846.47;;;20.13;57.67
9281;BME280;4679;47.966;7.958;2023-05-20T11:59:22;96847.94;;;20.27;57.38
9281;BME280;4679;47.966;7.958;2023-05-20T12:01:24;96854.84;;;20.51;56.55
9281;BME280;4679;47.966;7.958;2023-05-20T12:03:27;96843.34;;;20.76;56.28
9281;BME280;4679;47.966;7.958;2023-05-20T12:05:29;96846.97;;;20.71;56.50
9281;BME280;4679;47.966;7.958;2023-05-20T12:07:31;96846.16;;;20.71;56.36
9281;BME280;4679;47.966;7.958;2023-05-20T12:09:33;96847.38;;;20.48;56.78
9281;BME280;4679;47.966;7.958;2023-05-20T12:11:37;96841.19;;;20.39;56.88
9281;BME280;4679;47.966;7.958;2023-05-20T12:13:40;96849.69;;;20.89;55.83
9281;BME280;4679;47.966;7.958;2023-05-20T12:15:42;96844.47;;;21.27;55.02
9281;BME280;4679;47.966;7.958;2023-05-20T12:17:46;96840.16;;;21.52;54.28
9281;BME280;4679;47.966;7.958;2023-05-20T12:19:47;96843.78;;;21.64;54.04
9281;BME280;4679;47.966;7.958;2023-05-20T12:21:49;96830.31;;;21.47;54.48
9281;BME280;4679;47.966;7.958;2023-05-20T12:23:52;96839.56;;;21.37;54.54
9281;BME280;4679;47.966;7.958;2023-05-20T12:25:56;96820.94;;;21.53;54.78
9281;BME280;4679;47.966;7.958;2023-05-20T12:28:01;96824.59;;;21.40;54.47
9281;BME280;4679;47.966;7.958;2023-05-20T12:30:04;96817.78;;;21.17;55.06
9281;BME280;4679;47.966;7.958;2023-05-20T12:32:07;96818.59;;;21.17;55.09
9281;BME280;4679;47.966;7.958;2023-05-20T12:34:09;96813.19;;;21.17;55.47
9281;BME280;4679;47.966;7.958;2023-05-20T12:36:11;96811.44;;;21.38;54.70
9281;BME280;4679;47.966;7.958;2023-05-20T12:38:13;96799.09;;;21.84;53.71
9281;BME280;4679;47.966;7.958;2023-05-20T12:40:14;96801.69;;;22.10;53.49
9281;BME280;4679;47.966;7.958;2023-05-20T12:42:16;96808.94;;;21.80;54.17
9281;BME280;4679;47.966;7.958;2023-05-20T12:44:19;96796.66;;;21.91;53.89
9281;BME280;4679;47.966;7.958;2023-05-20T12:46:21;96786.69;;;21.83;53.99
9281;BME280;4679;47.966;7.958;2023-05-20T12:48:23;96786.44;;;22.14;53.62
9281;BME280;4679;47.966;7.958;2023-05-20T12:50:26;96787.06;;;22.40;53.12
9281;BME280;4679;47.966;7.958;2023-05-20T12:52:27;96788.94;;;22.19;53.74
9281;BME280;4679;47.966;7.958;2023-05-20T12:54:29;96785.06;;;22.29;53.58
9281;BME280;4679;47.966;7.958;2023-05-20T12:56:31;96781.69;;;22.32;53.80
9281;BME280;4679;47.966;7.958;2023-05-20T12:58:33;96796.38;;;22.52;53.29
9281;BME280;4679;47.966;7.958;2023-05-20T13:00:36;96793.69;;;22.22;53.56
9281;BME280;4679;47.966;7.958;2023-05-20T13:02:40;96797.25;;;22.14;53.68
9281;BME280;4679;47.966;7.958;2023-05-20T13:04:42;96801.97;;;22.17;53.85
9281;BME280;4679;47.966;7.958;2023-05-20T13:06:44;96799.72;;;22.49;53.24
9281;BME280;4679;47.966;7.958;2023-05-20T13:08:45;96798.13;;;22.77;52.66
9281;BME280;4679;47.966;7.958;2023-05-20T13:10:47;96802.22;;;22.83;52.55
9281;BME280;4679;47.966;7.958;2023-05-20T13:12:49;96798.78;;;22.95;52.47
9281;BME280;4679;47.966;7.958;2023-05-20T13:14:50;96795.56;;;23.01;52.39
9281;BME280;4679;47.966;7.958;2023-05-20T13:16:54;96805.59;;;22.80;52.77
9281;BME280;4679;47.966;7.958;2023-05-20T13:18:55;96797.25;;;22.64;53.21
9281;BME280;4679;47.966;7.958;2023-05-20T13:20:57;96787.13;;;22.53;53.41
9281;BME280;4679;47.966;7.958;2023-05-20T13:22:59;96788.97;;;22.40;53.62
9281;BME280;4679;47.966;7.958;2023-05-20T13:25:00;96791.06;;;22.34;53.52
9281;BME280;4679;47.966;7.958;2023-05-20T13:27:03;96785.00;;;22.37;53.83
9281;BME280;4679;47.966;7.958;2023-05-20T13:29:05;96785.00;;;22.37;53.73
9281;BME280;4679;47.966;7.958;2023-05-20T13:31:07;96785.00;;;22.37;53.52
9281;BME280;4679;47.966;7.958;2023-05-20T13:33:10;96786.44;;;22.14;54.16
9281;BME280;4679;47.966;7.958;2023-05-20T13:35:12;96787.13;;;21.85;54.42
9281;BME280;4679;47.966;7.958;2023-05-20T13:37:16;96783.41;;;21.69;54.58
9281;BME280;4679;47.966;7.958;2023-05-20T13:39:17;96776.28;;;21.56;54.98
9281;BME280;4679;47.966;7.958;2023-05-20T13:41:19;96777.13;;;21.48;54.69
9281;BME280;4679;47.966;7.958;2023-05-20T13:43:21;96772.19;;;21.41;54.68
9281;BME280;4679;47.966;7.958;2023-05-20T13:45:23;96784.63;;;21.25;54.46
9281;BME280;4679;47.966;7.958;2023-05-20T13:47:25;96779.53;;;21.15;54.64
9281;BME280;4679;47.966;7.958;2023-05-20T13:49:28;96777.00;;;21.01;55.08
9281;BME280;4679;47.966;7.958;2023-05-20T13:51:30;96781.78;;;20.87;54.86
9281;BME280;4679;47.966;7.958;2023-05-20T13:53:32;96780.19;;;20.77;54.85
9281;BME280;4679;47.966;7.958;2023-05-20T13:55:34;96778.75;;;20.80;54.35
9281;BME280;4679;47.966;7.958;2023-05-20T13:57:36;96770.97;;;20.78;54.57
9281;BME280;4679;47.966;7.958;2023-05-20T13:59:37;96776.84;;;20.71;54.14
9281;BME280;4679;47.966;7.958;2023-05-20T14:01:39;96774.47;;;20.70;54.63
9281;BME280;4679;47.966;7.958;2023-05-20T14:03:44;96773.38;;;20.71;54.74
9281;BME280;4679;47.966;7.958;2023-05-20T14:05:47;96770.50;;;20.67;54.36
9281;BME280;4679;47.966;7.958;2023-05-20T14:07:49;96770.66;;;20.71;54.47
9281;BME280;4679;47.966;7.958;2023-05-20T14:09:50;96763.53;;;20.75;54.58
9281;BME280;4679;47.966;7.958;2023-05-20T14:11:52;96764.78;;;20.69;54.42
9281;BME280;4679;47.966;7.958;2023-05-20T14:13:53;96763.69;;;20.70;54.12
9281;BME280;4679;47.966;7.958;2023-05-20T14:15:55;96761.78;;;20.70;54.23
9281;BME280;4679;47.966;7.958;2023-05-20T14:17:57;96763.38;;;20.71;54.11
9281;BME280;4679;47.966;7.958;2023-05-20T14:19:59;96764.16;;;20.72;54.12
9281;BME280;4679;47.966;7.958;2023-05-20T14:22:02;96759.09;;;20.70;54.05
9281;BME280;4679;47.966;7.958;2023-05-20T14:24:04;96761.94;;;20.65;54.12
9281;BME280;4679;47.966;7.958;2023-05-20T14:26:06;96762.41;;;20.67;54.18
9281;BME280;4679;47.966;7.958;2023-05-20T14:28:08;96761.13;;;20.65;54.03
9281;BME280;4679;47.966;7.958;2023-05-20T14:30:10;96762.41;;;20.67;54.24
9281;BME280;4679;47.966;7.958;2023-05-20T14:32:12;96765.41;;;20.66;54.04
9281;BME280;4679;47.966;7.958;2023-05-20T14:34:14;96770.50;;;20.67;54.25
9281;BME280;4679;47.966;7.958;2023-05-20T14:36:15;96766.38;;;20.70;53.90
9281;BME280;4679;47.966;7.958;2023-05-20T14:38:19;96773.22;;;20.76;54.01
9281;BME280;4679;47.966;7.958;2023-05-20T14:40:21;96774.78;;;20.86;53.84
9281;BME280;4679;47.966;7.958;2023-05-20T14:42:23;96773.38;;;20.88;53.82
9281;BME280;4679;47.966;7.958;2023-05-20T14:44:24;96775.09;;;20.84;53.82
9281;BME280;4679;47.966;7.958;2023-05-20T14:46:26;96772.09;;;20.77;54.02
9281;BME280;4679;47.966;7.958;2023-05-20T14:48:28;96772.25;;;20.81;53.98
9281;BME280;4679;47.966;7.958;2023-05-20T14:50:29;96767.31;;;20.83;54.03
9281;BME280;4679;47.966;7.958;2023-05-20T14:52:31;96765.44;;;20.83;54.20
9281;BME280;4679;47.966;7.958;2023-05-20T14:54:34;96773.53;;;20.83;54.11
9281;BME280;4679;47.966;7.958;2023-05-20T14:56:36;96778.28;;;20.78;54.25
9281;BME280;4679;47.966;7.958;2023-05-20T14:58:38;96779.41;;;20.77;54.25
9281;BME280;4679;47.966;7.958;2023-05-20T15:00:40;96779.06;;;20.78;54.38
9281;BME280;4679;47.966;7.958;2023-05-20T15:02:42;96784.81;;;20.77;54.21
9281;BME280;4679;47.966;7.958;2023-05-20T15:04:44;96780.66;;;20.79;54.19
9281;BME280;4679;47.966;7.958;2023-05-20T15:06:47;96789.53;;;20.80;54.36
9281;BME280;4679;47.966;7.958;2023-05-20T15:08:49;96785.72;;;20.81;54.01
9281;BME280;4679;47.966;7.958;2023-05-20T15:10:52;96784.78;;;20.85;54.24
9281;BME280;4679;47.966;7.958;2023-05-20T15:12:54;96788.28;;;20.86;54.45
9281;BME280;4679;47.966;7.958;2023-05-20T15:14:55;96791.28;;;20.84;54.60
9281;BME280;4679;47.966;7.958;2023-05-20T15:16:57;96786.22;;;20.83;54.39
9281;BME280;4679;47.966;7.958;2023-05-20T15:18:58;96776.06;;;20.80;54.35
9281;BME280;4679;47.966;7.958;2023-05-20T15:21:00;96786.38;;;20.78;54.79
9281;BME280;4679;47.966;7.958;2023-05-20T15:23:02;96781.00;;;20.78;54.77
9281;BME280;4679;47.966;7.958;2023-05-20T15:25:04;96779.84;;;20.79;54.81
9281;BME280;4679;47.966;7.958;2023-05-20T15:27:07;96775.91;;;20.76;54.53
9281;BME280;4679;47.966;7.958;2023-05-20T15:29:09;96773.84;;;20.73;54.82
9281;BME280;4679;47.966;7.958;2023-05-20T15:31:11;96784.94;;;20.71;54.97
9281;BME280;4679;47.966;7.958;2023-05-20T15:33:12;96781.94;;;20.73;54.85
9281;BME280;4679;47.966;7.958;2023-05-20T15:35:14;96781.75;;;20.69;54.81
9281;BME280;4679;47.966;7.958;2023-05-20T15:37:16;96783.34;;;20.70;55.05
9281;BME280;4679;47.966;7.958;2023-05-20T15:39:17;96778.75;;;20.71;54.93
9281;BME280;4679;47.966;7.958;2023-05-20T15:41:19;96787.16;;;20.69;55.01
9281;BME280;4679;47.966;7.958;2023-05-20T15:43:23;96782.88;;;20.68;55.09
9281;BME280;4679;47.966;7.958;2023-05-20T15:45:25;96782.09;;;20.68;54.96
9281;BME280;4679;47.966;7.958;2023-05-20T15:47:27;96786.19;;;20.65;55.11
9281;BME280;4679;47.966;7.958;2023-05-20T15:49:29;96785.72;;;20.63;55.10
9281;BME280;4679;47.966;7.958;2023-05-20T15:51:30;96791.47;;;20.62;55.21
9281;BME280;4679;47.966;7.958;2023-05-20T15:53:32;96796.06;;;20.61;55.15
9281;BME280;4679;47.966;7.958;2023-05-20T15:55:34;96790.50;;;20.58;55.13
9281;BME280;4679;47.966;7.958;2023-05-20T15:57:36;96782.72;;;20.56;55.07
9281;BME280;4679;47.966;7.958;2023-05-20T15:59:39;96784.31;;;20.57;54.93
9281;BME280;4679;47.966;7.958;2023-05-20T16:01:41;96780.50;;;20.58;54.88
9281;BME280;4679;47.966;7.958;2023-05-20T16:03:42;96779.41;;;20.59;55.02
9281;BME280;4679;47.966;7.958;2023-05-20T16:05:44;96781.44;;;20.62;55.22
9281;BME280;4679;47.966;7.958;2023-05-20T16:07:46;96780.81;;;20.65;55.01
9281;BME280;4679;47.966;7.958;2023-05-20T16:09:47;96773.03;;;20.64;55.06
9281;BME280;4679;47.966;7.958;2023-05-20T16:11:49;96774.94;;;20.63;55.02
9281;BME280;4679;47.966;7.958;2023-05-20T16:13:50;96776.84;;;20.63;54.74
9281;BME280;4679;47.966;7.958;2023-05-20T16:15:53;96769.53;;;20.63;55.12
9281;BME280;4679;47.966;7.958;2023-05-20T16:17:56;96774.94;;;20.63;55.13
9281;BME280;4679;47.966;7.958;2023-05-20T16:19:58;96780.66;;;20.62;55.42
9281;BME280;4679;47.966;7.958;2023-05-20T16:22:00;96783.69;;;20.60;55.55
9281;BME280;4679;47.966;7.958;2023-05-20T16:24:02;96787.16;;;20.61;55.17
9281;BME280;4679;47.966;7.958;2023-05-20T16:26:03;96786.38;;;20.60;55.03
9281;BME280;4679;47.966;7.958;2023-05-20T16:28:05;96787.47;;;20.59;54.92
9281;BME280;4679;47.966;7.958;2023-05-20T16:30:08;96784.47;;;20.61;55.22
9281;BME280;4679;47.966;7.958;2023-05-20T16:32:11;96783.38;;;20.62;54.96
9281;BME280;4679;47.966;7.958;2023-05-20T16:34:13;96774.63;;;20.65;55.06
9281;BME280;4679;47.966;7.958;2023-05-20T16:36:15;96780.00;;;20.65;55.28
9281;BME280;4679;47.966;7.958;2023-05-20T16:38:17;96774.63;;;20.65;55.25
9281;BME280;4679;47.966;7.958;2023-05-20T16:40:18;96780.00;;;20.65;55.36
9281;BME280;4679;47.966;7.958;2023-05-20T16:42:20;96776.69;;;20.68;55.20
9281;BME280;4679;47.966;7.958;2023-05-20T16:44:22;96780.97;;;20.69;55.33
9281;BME280;4679;47.966;7.958;2023-05-20T16:46:24;96783.03;;;20.63;55.17
9281;BME280;4679;47.966;7.958;2023-05-20T16:48:27;96780.31;;;20.63;55.14
9281;BME280;4679;47.966;7.958;2023-05-20T16:50:28;96778.59;;;20.67;55.64
9281;BME280;4679;47.966;7.958;2023-05-20T16:52:31;96773.03;;;20.64;55.61
9281;BME280;4679;47.966;7.958;2023-05-20T16:54:33;96777.97;;;20.62;55.55
9281;BME280;4679;47.966;7.958;2023-05-20T16:56:35;96777.97;;;20.62;55.67
9281;BME280;4679;47.966;7.958;2023-05-20T16:58:37;96783.50;;;20.57;55.77
9281;BME280;4679;47.966;7.958;2023-05-20T17:00:38;96781.13;;;20.55;55.83
9281;BME280;4679;47.966;7.958;2023-05-20T17:02:40;96779.38;;;20.51;55.81
9281;BME280;4679;47.966;7.958;2023-05-20T17:04:43;96773.97;;;20.51;55.90
9281;BME280;4679;47.966;7.958;2023-05-20T17:06:45;96786.53;;;20.47;56.08
9281;BME280;4679;47.966;7.958;2023-05-20T17:08:49;96779.84;;;20.44;56.34
9281;BME280;4679;47.966;7.958;2023-05-20T17:10:50;96786.66;;;20.42;56.19
9281;BME280;4679;47.966;7.958;2023-05-20T17:12:52;96786.78;;;20.36;56.20
9281;BME280;4679;47.966;7.958;2023-05-20T17:14:54;96786.28;;;20.34;56.46
9281;BME280;4679;47.966;7.958;2023-05-20T17:16:56;96789.63;;;20.31;57.02
9281;BME280;4679;47.966;7.958;2023-05-20T17:18:58;96786.75;;;20.28;56.67
9281;BME280;4679;47.966;7.958;2023-05-20T17:21:01;96786.94;;;20.31;56.81
9281;BME280;4679;47.966;7.958;2023-05-20T17:23:03;96778.38;;;20.29;56.72
9281;BME280;4679;47.966;7.958;2023-05-20T17:25:05;96785.78;;;20.24;57.11
9281;BME280;4679;47.966;7.958;2023-05-20T17:27:07;96779.75;;;20.18;56.82
9281;BME280;4679;47.966;7.958;2023-05-20T17:29:08;96787.38;;;20.16;57.07
9281;BME280;4679;47.966;7.958;2023-05-20T17:31:10;96776.13;;;20.14;57.02
9281;BME280;4679;47.966;7.958;2023-05-20T17:33:12;96782.13;;;20.11;57.49
9281;BME280;4679;47.966;7.958;2023-05-20T17:35:14;96785.13;;;20.10;57.39
9281;BME280;4679;47.966;7.958;2023-05-20T17:37:17;96794.00;;;20.10;57.35
9281;BME280;4679;47.966;7.958;2023-05-20T17:39:18;96788.91;;;20.09;57.22
9281;BME280;4679;47.966;7.958;2023-05-20T17:41:20;96802.41;;;20.09;57.72
9281;BME280;4679;47.966;7.958;2023-05-20T17:43:22;96796.69;;;20.10;57.52
9281;BME280;4679;47.966;7.958;2023-05-20T17:45:24;96797.19;;;20.12;57.56
9281;BME280;4679;47.966;7.958;2023-05-20T17:47:26;96800.50;;;20.09;57.46
9281;BME280;4679;47.966;7.958;2023-05-20T17:49:28;96800.00;;;20.07;57.90
9281;BME280;4679;47.966;7.958;2023-05-20T17:51:29;96801.41;;;20.05;58.19
9281;BME280;4679;47.966;7.958;2023-05-20T17:53:33;96806.00;;;20.04;58.17